Time;durP1;ratioP1;P1;durP2;ratioP2;P2;SDS_P1;SDS_P2;PMS_P1;PMS_P2;Temp;Humidity;BMP_temperature;BMP_pressure;BME280_temperature;BME280_humidity;BME280_pressure;Samples;Min_cycle;Max_cycle;Signal;HPM_P1;HPM_P2
2023/10/19 00:01:52;;;;;;;6.30;5.37;;;11.20;99.90;;;;;;7300281;32;20342;-56
2023/10/19 00:05:56;;;;;;;9.00;5.85;;;11.30;99.90;;;;;;7297891;32;20210;-56
2023/10/19 00:09:58;;;;;;;7.75;6.10;;;11.40;99.90;;;;;;7296709;32;20186;-56
2023/10/19 00:14:01;;;;;;;6.82;5.53;;;11.30;99.90;;;;;;7296572;32;20154;-56
2023/10/19 00:22:21;;;;;;;9.63;6.50;;;11.40;99.90;;;;;;7296239;32;20145;-56
2023/10/19 00:26:26;;;;;;;8.13;6.40;;;11.40;99.90;;;;;;7292775;32;20485;-55
2023/10/19 00:30:32;;;;;;;7.45;6.60;;;11.50;99.90;;;;;;7293036;32;20405;-55
2023/10/19 00:34:38;;;;;;;7.93;6.05;;;11.50;99.90;;;;;;7298650;32;20704;-56
2023/10/19 00:38:56;;;;;;;7.60;5.90;;;11.50;99.90;;;;;;7291731;32;20103;-55
2023/10/19 00:42:57;;;;;;;;;;;11.50;99.90;;;;;;7295419;32;20103;-56
2023/10/19 00:47:12;;;;;;;9.30;6.65;;;11.50;99.90;;;;;;7294302;32;20007;-56
2023/10/19 00:51:26;;;;;;;9.07;7.47;;;11.60;99.90;;;;;;7297979;32;20095;-56
2023/10/19 00:55:28;;;;;;;9.60;6.90;;;11.60;99.90;;;;;;7296004;32;20191;-56
2023/10/19 00:59:35;;;;;;;7.37;6.55;;;11.60;99.90;;;;;;7301772;32;20093;-56
2023/10/19 01:03:37;;;;;;;10.85;7.15;;;11.70;99.90;;;;;;7281179;32;20642;-55
2023/10/19 01:07:40;;;;;;;11.05;7.25;;;11.80;99.90;;;;;;7296651;32;20187;-56
2023/10/19 01:11:49;;;;;;;8.02;6.78;;;11.80;99.90;;;;;;7295958;32;20489;-56
2023/10/19 01:15:51;;;;;;;10.02;7.53;;;11.70;99.90;;;;;;7297822;32;20128;-55
2023/10/19 01:19:53;;;;;;;10.25;6.95;;;11.80;99.90;;;;;;7300922;32;20096;-56
2023/10/19 01:23:55;;;;;;;11.05;7.43;;;11.90;99.90;;;;;;7294325;32;20637;-56
2023/10/19 01:27:57;;;;;;;10.52;8.15;;;11.80;99.90;;;;;;7281412;32;20100;-56
2023/10/19 01:32:08;;;;;;;13.18;8.98;;;11.70;99.90;;;;;;7297273;32;20239;-55
2023/10/19 01:36:12;;;;;;;10.02;8.20;;;11.80;99.90;;;;;;7293975;32;20391;-55
2023/10/19 01:40:20;;;;;;;10.40;7.87;;;11.80;99.90;;;;;;7295670;32;20453;-57
2023/10/19 01:44:24;;;;;;;10.35;7.57;;;11.90;99.90;;;;;;7294016;32;20880;-55
2023/10/19 01:48:33;;;;;;;10.48;8.00;;;11.90;99.90;;;;;;7299713;32;20108;-56
2023/10/19 01:52:35;;;;;;;11.23;8.13;;;11.90;99.90;;;;;;7292666;32;20216;-57
2023/10/19 01:56:38;;;;;;;9.82;7.22;;;12.00;99.90;;;;;;7295696;32;20096;-55
2023/10/19 02:00:43;;;;;;;11.30;7.57;;;12.00;99.90;;;;;;7293415;32;20270;-56
2023/10/19 02:04:45;;;;;;;10.52;7.82;;;12.00;99.90;;;;;;7296225;32;20672;-56
2023/10/19 02:08:56;;;;;;;9.75;7.72;;;12.10;99.90;;;;;;7304426;32;20183;-56
2023/10/19 02:12:58;;;;;;;8.48;7.18;;;12.10;99.90;;;;;;7305300;32;20858;-56
2023/10/19 02:17:02;;;;;;;10.27;7.40;;;12.10;99.90;;;;;;7296088;32;20191;-56
2023/10/19 02:21:06;;;;;;;8.60;7.25;;;12.10;99.90;;;;;;7298400;32;20218;-56
2023/10/19 02:25:10;;;;;;;8.73;7.15;;;12.20;99.90;;;;;;7304082;32;20112;-56
2023/10/19 02:29:12;;;;;;;7.70;6.53;;;12.10;99.90;;;;;;7298745;32;20123;-56
2023/10/19 02:33:14;;;;;;;10.38;7.00;;;12.30;99.90;;;;;;7304649;32;20184;-56
2023/10/19 02:37:16;;;;;;;9.30;6.25;;;12.30;99.90;;;;;;7301849;32;20104;-56
2023/10/19 02:41:20;;;;;;;8.55;5.87;;;12.30;99.90;;;;;;7302962;32;20096;-56
2023/10/19 02:45:23;;;;;;;9.02;6.10;;;12.40;99.90;;;;;;7291864;32;20302;-56
2023/10/19 02:49:26;;;;;;;8.65;6.15;;;12.40;99.90;;;;;;7297197;32;20108;-57
2023/10/19 02:53:28;;;;;;;7.18;6.22;;;12.50;99.90;;;;;;7288031;32;20491;-56
2023/10/19 02:57:31;;;;;;;9.60;6.22;;;12.50;99.90;;;;;;7297038;32;20108;-56
2023/10/19 03:01:36;;;;;;;7.05;5.87;;;12.40;99.90;;;;;;7297116;32;20552;-56
2023/10/19 03:05:39;;;;;;;7.97;6.30;;;12.60;99.90;;;;;;7300254;32;20100;-56
2023/10/19 03:09:48;;;;;;;7.25;6.03;;;12.70;99.90;;;;;;7299497;32;20162;-56
2023/10/19 03:13:51;;;;;;;9.15;5.65;;;12.60;99.90;;;;;;7294510;32;20154;-55
2023/10/19 03:17:52;;;;;;;7.45;5.35;;;12.60;99.90;;;;;;7298761;32;20202;-58
2023/10/19 03:22:00;;;;;;;6.45;5.25;;;12.60;99.90;;;;;;7293699;32;20237;-56
2023/10/19 03:30:05;;;;;;;5.25;4.60;;;12.60;99.90;;;;;;7289589;32;20107;-56
2023/10/19 03:34:06;;;;;;;6.75;5.20;;;12.60;99.90;;;;;;7291056;32;20481;-56
2023/10/19 03:38:16;;;;;;;6.18;4.80;;;12.60;99.90;;;;;;7289789;32;20465;-56
2023/10/19 03:42:20;;;;;;;5.47;4.47;;;12.60;99.90;;;;;;7296930;32;20128;-56
2023/10/19 03:46:28;;;;;;;6.43;5.18;;;12.60;99.90;;;;;;7291460;32;20114;-53
2023/10/19 03:50:33;;;;;;;7.28;4.72;;;12.60;99.90;;;;;;7300196;32;20490;-54
2023/10/19 03:54:40;;;;;;;5.82;4.03;;;12.60;99.90;;;;;;7301070;32;20453;-56
2023/10/19 03:58:44;;;;;;;6.30;4.03;;;12.60;99.90;;;;;;7302065;32;20524;-54
2023/10/19 04:02:46;;;;;;;7.15;4.30;;;12.60;99.90;;;;;;7291526;32;20205;-53
2023/10/19 04:06:49;;;;;;;5.72;3.75;;;12.70;99.90;;;;;;7300883;32;20269;-55
2023/10/19 04:19:16;;;;;;;7.65;3.75;;;12.70;99.90;;;;;;7301505;32;20209;-55
2023/10/19 04:23:18;;;;;;;6.12;3.92;;;12.80;99.90;;;;;;7301066;32;20100;-55
2023/10/19 04:27:23;;;;;;;7.32;3.72;;;12.80;99.90;;;;;;7302449;32;20111;-55
2023/10/19 04:31:25;;;;;;;6.57;3.65;;;12.70;99.90;;;;;;7300460;32;20095;-55
2023/10/19 04:35:30;;;;;;;4.25;3.20;;;12.80;99.90;;;;;;7290781;32;20107;-54
2023/10/19 04:39:34;;;;;;;4.97;3.50;;;12.80;99.90;;;;;;7297859;32;20112;-54
2023/10/19 04:43:39;;;;;;;6.55;2.97;;;12.80;99.90;;;;;;7291411;32;20121;-55
2023/10/19 04:47:42;;;;;;;5.90;3.00;;;12.80;99.90;;;;;;7299788;32;20194;-55
2023/10/19 04:51:43;;;;;;;3.97;3.08;;;12.90;99.90;;;;;;7301365;32;20095;-55
2023/10/19 04:55:46;;;;;;;6.15;2.80;;;12.90;99.90;;;;;;7292555;32;20205;-55
2023/10/19 04:59:47;;;;;;;3.78;2.80;;;12.80;99.90;;;;;;7293939;32;20100;-54
2023/10/19 05:03:49;;;;;;;4.68;3.15;;;12.90;99.90;;;;;;7293859;32;20095;-54
2023/10/19 05:07:51;;;;;;;6.18;2.70;;;12.90;99.90;;;;;;7291130;32;20718;-55
2023/10/19 05:11:53;;;;;;;4.30;2.92;;;12.90;99.90;;;;;;7298276;32;20765;-55
2023/10/19 05:15:56;;;;;;;4.00;2.22;;;12.90;99.90;;;;;;7293425;32;20096;-55
2023/10/19 05:19:57;;;;;;;5.25;2.75;;;12.90;99.90;;;;;;7294002;32;20723;-55
2023/10/19 05:24:00;;;;;;;3.65;2.85;;;12.90;99.90;;;;;;7292613;32;20181;-55
2023/10/19 05:28:04;;;;;;;12.35;2.80;;;12.80;99.90;;;;;;7294967;32;20187;-55
2023/10/19 05:32:06;;;;;;;4.75;2.90;;;12.80;99.90;;;;;;7298731;32;20222;-55
2023/10/19 05:36:08;;;;;;;3.35;2.37;;;12.80;99.90;;;;;;7299637;32;20103;-54
2023/10/19 05:40:14;;;;;;;3.47;2.53;;;12.80;99.90;;;;;;7300032;32;20317;-53
2023/10/19 05:44:17;;;;;;;6.00;3.00;;;12.80;99.90;;;;;;7288123;32;20131;-55
2023/10/19 05:48:20;;;;;;;4.57;2.70;;;12.80;99.90;;;;;;7299438;32;20124;-56
2023/10/19 05:52:22;;;;;;;4.75;3.05;;;12.70;99.90;;;;;;7292734;32;20166;-55
2023/10/19 05:56:24;;;;;;;3.25;2.75;;;12.70;99.90;;;;;;7302694;32;20107;-55
2023/10/19 06:00:26;;;;;;;5.93;2.62;;;12.80;99.90;;;;;;7305538;32;20187;-56
2023/10/19 06:04:28;;;;;;;8.02;3.37;;;12.80;99.90;;;;;;7304455;32;20150;-57
2023/10/19 06:08:31;;;;;;;4.05;3.00;;;12.80;99.90;;;;;;7293960;32;20502;-57
2023/10/19 06:12:33;;;;;;;4.47;2.75;;;12.80;99.90;;;;;;7303562;32;20129;-57
2023/10/19 06:16:35;;;;;;;5.37;2.92;;;12.90;99.90;;;;;;7298429;32;20252;-57
2023/10/19 06:20:38;;;;;;;7.55;3.20;;;12.80;99.90;;;;;;7303118;32;20191;-57
2023/10/19 06:24:39;;;;;;;6.60;3.97;;;12.80;99.90;;;;;;7300472;32;20135;-56
2023/10/19 06:28:41;;;;;;;4.85;3.40;;;12.90;99.90;;;;;;7302900;32;20123;-56
2023/10/19 06:32:48;;;;;;;4.85;3.08;;;12.90;99.90;;;;;;7298395;32;20584;-56
2023/10/19 06:36:51;;;;;;;7.82;3.33;;;12.90;99.90;;;;;;7299360;32;20154;-56
2023/10/19 06:40:52;;;;;;;5.82;3.62;;;12.90;99.90;;;;;;7296574;32;20097;-56
2023/10/19 06:44:56;;;;;;;6.10;3.60;;;12.90;99.90;;;;;;7297046;32;20478;-58
2023/10/19 06:49:00;;;;;;;8.90;3.72;;;13.00;99.90;;;;;;7299019;32;20565;-57
2023/10/19 06:53:05;;;;;;;6.07;3.55;;;13.00;99.90;;;;;;7301536;32;20092;-57
2023/10/19 06:57:08;;;;;;;6.03;3.95;;;13.00;99.90;;;;;;7301206;32;20198;-58
2023/10/19 07:01:10;;;;;;;4.35;3.80;;;13.10;99.90;;;;;;7296196;32;20665;-56
2023/10/19 07:05:21;;;;;;;10.98;4.20;;;13.00;99.90;;;;;;7286476;32;20135;-57
2023/10/19 07:09:23;;;;;;;7.07;3.95;;;13.20;99.90;;;;;;7299070;32;20104;-57
2023/10/19 07:13:27;;;;;;;6.70;4.00;;;13.30;99.90;;;;;;7289996;32;20120;-57
2023/10/19 07:17:29;;;;;;;5.93;4.40;;;13.20;99.90;;;;;;7297769;32;20489;-57
2023/10/19 07:21:35;;;;;;;6.62;3.72;;;13.20;99.90;;;;;;7295742;32;20581;-57
2023/10/19 07:25:43;;;;;;;6.93;3.95;;;13.30;99.90;;;;;;7291865;32;20211;-57
2023/10/19 07:29:45;;;;;;;7.90;4.00;;;13.30;99.90;;;;;;7293383;32;20181;-58
2023/10/19 07:33:49;;;;;;;6.97;4.10;;;13.30;99.90;;;;;;7298531;32;20175;-58
2023/10/19 07:37:52;;;;;;;5.72;4.05;;;13.40;99.90;;;;;;7294676;32;20207;-56
2023/10/19 07:41:53;;;;;;;5.82;3.95;;;13.40;99.90;;;;;;7298284;32;20259;-56
2023/10/19 07:45:56;;;;;;;9.90;4.57;;;13.40;99.90;;;;;;7296725;32;20127;-56
2023/10/19 07:49:59;;;;;;;8.27;4.10;;;13.50;99.90;;;;;;7297890;32;20197;-57
2023/10/19 07:54:01;;;;;;;7.00;3.60;;;13.50;99.90;;;;;;7291552;32;20187;-58
2023/10/19 07:58:03;;;;;;;8.02;4.07;;;13.40;99.90;;;;;;7291862;32;20311;-56
2023/10/19 08:02:05;;;;;;;9.63;4.55;;;13.50;99.90;;;;;;7291194;32;20096;-56
2023/10/19 08:06:07;;;;;;;7.00;3.92;;;13.60;99.90;;;;;;7290282;32;20861;-57
2023/10/19 08:10:11;;;;;;;7.00;4.35;;;13.70;99.90;;;;;;7294397;32;20097;-57
2023/10/19 08:14:14;;;;;;;9.80;4.50;;;13.80;99.90;;;;;;7294382;32;20717;-56
2023/10/19 08:18:15;;;;;;;8.52;4.43;;;13.90;99.90;;;;;;7303702;32;20107;-57
2023/10/19 08:22:17;;;;;;;8.68;4.32;;;13.90;99.90;;;;;;7298018;32;20274;-57
2023/10/19 08:26:20;;;;;;;8.65;4.00;;;14.00;99.90;;;;;;7303086;32;20187;-58
2023/10/19 08:30:23;;;;;;;6.05;4.25;;;14.20;99.90;;;;;;7300681;32;20099;-56
2023/10/19 08:34:31;;;;;;;7.25;4.30;;;14.60;99.90;;;;;;7297004;32;20461;-57
2023/10/19 08:38:34;;;;;;;8.35;3.78;;;14.90;99.90;;;;;;7295422;32;20162;-56
2023/10/19 08:42:36;;;;;;;9.68;3.65;;;15.10;99.90;;;;;;7295826;32;20242;-57
2023/10/19 08:46:48;;;;;;;6.35;3.40;;;15.30;99.90;;;;;;7295240;32;20676;-57
2023/10/19 08:50:50;;;;;;;5.57;3.25;;;15.40;99.90;;;;;;7301371;32;20606;-57
2023/10/19 08:54:52;;;;;;;6.55;3.37;;;15.50;99.90;;;;;;7303343;32;20848;-57
2023/10/19 08:58:53;;;;;;;8.38;2.90;;;15.40;99.90;;;;;;7291415;32;20573;-57
2023/10/19 09:02:59;;;;;;;6.68;3.12;;;15.40;99.90;;;;;;7298697;32;20566;-57
2023/10/19 09:07:08;;;;;;;7.90;2.97;;;15.60;99.90;;;;;;7299533;32;20281;-56
2023/10/19 09:11:12;;;;;;;6.20;3.05;;;15.80;99.90;;;;;;7290053;32;20492;-57
2023/10/19 09:15:23;;;;;;;4.85;2.50;;;15.90;99.90;;;;;;7306579;32;20108;-57
2023/10/19 09:19:41;;;;;;;8.00;2.55;;;16.00;99.90;;;;;;7303872;32;20129;-57
2023/10/19 09:23:44;;;;;;;7.28;2.65;;;16.10;99.90;;;;;;7292671;32;20107;-58
2023/10/19 09:27:46;;;;;;;6.20;2.33;;;16.10;99.90;;;;;;7309125;32;20124;-57
2023/10/19 09:31:49;;;;;;;6.60;2.70;;;16.10;99.90;;;;;;7301066;32;20216;-58
2023/10/19 09:35:53;;;;;;;6.10;2.55;;;16.20;99.90;;;;;;7299083;32;20936;-58
2023/10/19 09:39:56;;;;;;;5.93;2.22;;;16.40;99.90;;;;;;7288186;32;20122;-58
2023/10/19 09:44:06;;;;;;;4.97;2.60;;;16.70;99.90;;;;;;7293619;32;20828;-58
2023/10/19 09:48:16;;;;;;;8.82;2.30;;;17.20;99.90;;;;;;7299091;32;20425;-57
2023/10/19 09:52:19;;;;;;;9.95;1.65;;;17.60;99.90;;;;;;7296508;32;20248;-57
2023/10/19 09:56:27;;;;;;;3.45;1.60;;;17.50;99.90;;;;;;7294571;32;20674;-58
2023/10/19 10:00:31;;;;;;;6.37;2.12;;;17.70;99.90;;;;;;7302047;32;20694;-57
2023/10/19 10:04:37;;;;;;;4.55;1.70;;;17.70;99.90;;;;;;7303501;32;20573;-57
2023/10/19 10:08:40;;;;;;;5.72;1.50;;;17.70;99.90;;;;;;7299559;32;20200;-57
2023/10/19 10:12:42;;;;;;;5.78;1.60;;;17.50;99.90;;;;;;7303393;32;20156;-57
2023/10/19 10:16:44;;;;;;;6.45;1.60;;;17.40;99.90;;;;;;7302034;32;20104;-57
2023/10/19 10:20:47;;;;;;;5.78;1.30;;;17.40;99.90;;;;;;7303723;32;20775;-58
2023/10/19 10:24:55;;;;;;;6.00;1.30;;;17.30;99.90;;;;;;7291186;32;20241;-57
2023/10/19 10:29:20;;;;;;;5.50;1.20;;;17.30;99.90;;;;;;7296032;32;20883;-57
2023/10/19 10:33:48;;;;;;;6.15;1.52;;;17.20;99.90;;;;;;7297352;32;20482;-57
2023/10/19 10:37:56;;;;;;;4.05;1.23;;;17.20;99.90;;;;;;7291358;32;20177;-57
2023/10/19 10:41:58;;;;;;;7.60;1.92;;;17.10;99.90;;;;;;7299540;32;20192;-58
2023/10/19 10:46:10;;;;;;;7.03;1.33;;;17.30;99.90;;;;;;7304671;32;20520;-58
2023/10/19 10:50:12;;;;;;;6.68;1.10;;;17.20;99.90;;;;;;7289417;32;20254;-57
2023/10/19 10:54:14;;;;;;;5.72;1.02;;;17.40;99.90;;;;;;7296277;32;20101;-57
2023/10/19 10:58:19;;;;;;;8.55;1.60;;;17.50;99.90;;;;;;7305676;32;20095;-59
2023/10/19 11:02:21;;;;;;;9.75;1.48;;;17.50;99.90;;;;;;7292948;32;20131;-57
2023/10/19 11:06:23;;;;;;;7.05;1.20;;;17.60;99.90;;;;;;7289887;32;20127;-58
2023/10/19 11:10:29;;;;;;;2.87;1.00;;;17.70;99.90;;;;;;7294671;32;20126;-58
2023/10/19 11:14:31;;;;;;;7.35;1.25;;;17.60;99.90;;;;;;7296553;32;20273;-57
2023/10/19 11:18:44;;;;;;;7.10;1.10;;;17.40;99.90;;;;;;7288476;32;20099;-57
2023/10/19 11:22:50;;;;;;;5.18;1.30;;;17.50;99.90;;;;;;7305065;32;20336;-57
2023/10/19 11:26:52;;;;;;;8.55;1.42;;;17.40;99.90;;;;;;7294306;32;20199;-57
2023/10/19 11:30:53;;;;;;;6.43;1.25;;;17.60;99.90;;;;;;7290584;32;20121;-57
2023/10/19 11:34:56;;;;;;;8.82;1.30;;;17.50;99.90;;;;;;7295277;32;20129;-57
2023/10/19 11:38:58;;;;;;;5.80;1.52;;;17.40;99.90;;;;;;7296604;32;20108;-58
2023/10/19 11:43:00;;;;;;;6.95;1.10;;;17.60;99.90;;;;;;7297251;32;20405;-59
2023/10/19 11:47:03;;;;;;;5.30;1.30;;;17.60;99.90;;;;;;7297310;32;20096;-58
2023/10/19 11:51:05;;;;;;;6.15;1.37;;;17.70;99.90;;;;;;7294526;32;20486;-58
2023/10/19 11:55:08;;;;;;;4.75;1.10;;;17.70;99.90;;;;;;7297638;32;20301;-57
2023/10/19 11:59:12;;;;;;;6.18;1.30;;;17.80;99.90;;;;;;7295991;32;20178;-57
2023/10/19 12:03:14;;;;;;;6.37;1.50;;;17.90;99.90;;;;;;7288463;32;20100;-57
2023/10/19 12:07:16;;;;;;;8.57;1.40;;;18.00;99.90;;;;;;7298461;32;21503;-58
2023/10/19 12:11:22;;;;;;;7.60;1.25;;;17.90;99.90;;;;;;7291895;32;20200;-57
2023/10/19 12:15:25;;;;;;;4.45;1.27;;;18.00;99.90;;;;;;7290115;32;20226;-57
2023/10/19 12:19:31;;;;;;;4.60;1.10;;;18.10;99.90;;;;;;7295949;32;20179;-58
2023/10/19 12:23:33;;;;;;;6.50;1.20;;;18.30;99.90;;;;;;7297038;32;20516;-57
2023/10/19 12:27:37;;;;;;;4.07;1.00;;;18.20;99.90;;;;;;7293388;32;20096;-58
2023/10/19 12:31:39;;;;;;;7.40;1.67;;;18.30;99.90;;;;;;7287410;32;20183;-58
2023/10/19 12:35:48;;;;;;;5.43;1.65;;;18.30;99.90;;;;;;7290742;32;20128;-57
2023/10/19 12:39:49;;;;;;;7.87;1.62;;;18.30;99.90;;;;;;7294201;32;20303;-57
2023/10/19 12:43:52;;;;;;;6.20;1.02;;;18.20;99.90;;;;;;7287707;32;20188;-57
2023/10/19 12:47:54;;;;;;;5.85;1.45;;;18.10;99.90;;;;;;7293432;32;20213;-57
2023/10/19 12:51:56;;;;;;;12.73;1.40;;;17.90;99.90;;;;;;7300953;32;20607;-58
2023/10/19 12:55:59;;;;;;;4.22;1.20;;;17.80;99.90;;;;;;7299923;32;20479;-58
2023/10/19 13:00:23;;;;;;;6.72;1.42;;;17.60;99.90;;;;;;7288566;32;20200;-58
2023/10/19 13:04:23;;;;;;;3.97;1.10;;;17.60;99.90;;;;;;7291965;32;20108;-57
2023/10/19 13:08:27;;;;;;;7.32;1.83;;;17.60;99.90;;;;;;7285631;32;23167;-57
2023/10/19 13:12:29;;;;;;;5.20;1.42;;;17.40;99.90;;;;;;7296997;32;20166;-57
2023/10/19 13:16:31;;;;;;;6.43;1.45;;;17.20;99.90;;;;;;7297855;32;20364;-58
2023/10/19 13:20:34;;;;;;;7.72;1.62;;;17.20;99.90;;;;;;7292529;32;20455;-57
2023/10/19 13:24:41;;;;;;;6.62;1.30;;;17.20;99.90;;;;;;7295217;32;20600;-58
2023/10/19 13:28:44;;;;;;;11.18;1.92;;;17.10;99.90;;;;;;7293706;32;20122;-57
2023/10/19 13:32:46;;;;;;;10.98;1.70;;;17.10;99.90;;;;;;7294070;32;20104;-57
2023/10/19 13:36:49;;;;;;;4.00;1.10;;;17.10;99.90;;;;;;7295355;32;20230;-60
2023/10/19 13:40:51;;;;;;;7.57;1.30;;;17.10;99.90;;;;;;7290918;32;20132;-62
2023/10/19 13:44:53;;;;;;;5.80;1.48;;;17.00;99.90;;;;;;7288780;32;20202;-63
2023/10/19 13:48:55;;;;;;;4.35;1.30;;;16.90;99.90;;;;;;7292644;32;20514;-61
2023/10/19 13:53:01;;;;;;;6.15;1.48;;;16.80;99.90;;;;;;7286574;32;20262;-64
2023/10/19 13:57:03;;;;;;;6.28;1.30;;;16.90;99.90;;;;;;7292310;32;20154;-57
2023/10/19 14:01:09;;;;;;;6.53;1.62;;;16.90;99.90;;;;;;7296779;32;20752;-57
2023/10/19 14:05:11;;;;;;;9.10;1.98;;;16.90;99.90;;;;;;7290549;32;20100;-56
2023/10/19 14:09:13;;;;;;;12.23;1.77;;;16.90;99.90;;;;;;7299915;32;20104;-56
2023/10/19 14:13:15;;;;;;;5.62;1.50;;;16.90;99.90;;;;;;7298274;32;20096;-56
2023/10/19 14:17:17;;;;;;;8.75;1.73;;;16.90;99.90;;;;;;7297281;32;20108;-58
2023/10/19 14:21:20;;;;;;;6.68;1.62;;;16.70;99.90;;;;;;7294246;32;20104;-56
2023/10/19 14:25:23;;;;;;;5.57;1.42;;;16.70;99.90;;;;;;7295749;32;20311;-56
2023/10/19 14:29:24;;;;;;;8.18;1.58;;;16.60;99.90;;;;;;7297694;32;20431;-55
2023/10/19 14:33:26;;;;;;;5.65;1.80;;;16.60;99.90;;;;;;7296652;32;20200;-56
2023/10/19 14:37:28;;;;;;;7.90;1.50;;;16.60;99.90;;;;;;7298522;32;20126;-57
2023/10/19 14:41:30;;;;;;;8.60;1.60;;;16.40;99.90;;;;;;7297482;32;20313;-55
2023/10/19 14:45:32;;;;;;;7.35;1.95;;;16.40;99.90;;;;;;7295068;32;20214;-57
2023/10/19 14:49:34;;;;;;;9.88;1.90;;;16.40;99.90;;;;;;7302473;32;20217;-57
2023/10/19 14:53:36;;;;;;;8.48;2.12;;;16.40;99.90;;;;;;7290320;32;20357;-57
2023/10/19 14:57:39;;;;;;;6.87;1.73;;;16.40;99.90;;;;;;7293932;32;20140;-56
2023/10/19 15:01:41;;;;;;;4.43;1.67;;;16.20;99.90;;;;;;7291891;32;20096;-57
2023/10/19 15:05:43;;;;;;;9.95;2.10;;;16.10;99.90;;;;;;7298162;32;20116;-56
2023/10/19 15:09:47;;;;;;;9.32;1.70;;;16.20;99.90;;;;;;7299978;32;20224;-56
2023/10/19 15:13:50;;;;;;;7.97;1.55;;;16.10;99.90;;;;;;7295775;32;20203;-56
2023/10/19 15:17:53;;;;;;;5.28;1.55;;;16.10;99.90;;;;;;7291833;32;20100;-56
2023/10/19 15:21:55;;;;;;;7.97;1.60;;;16.00;99.90;;;;;;7297183;32;20100;-58
2023/10/19 15:25:56;;;;;;;3.65;1.12;;;15.90;99.90;;;;;;7297947;32;20236;-58
2023/10/19 15:29:58;;;;;;;8.45;1.58;;;15.90;99.90;;;;;;7295410;32;20131;-58
2023/10/19 15:34:00;;;;;;;3.53;1.42;;;15.90;99.90;;;;;;7295839;32;20199;-55
2023/10/19 15:38:02;;;;;;;5.68;2.12;;;16.10;99.90;;;;;;7301136;32;20183;-57
2023/10/19 15:42:04;;;;;;;5.60;1.60;;;15.90;99.90;;;;;;7286671;32;20122;-57
2023/10/19 15:46:06;;;;;;;5.30;1.50;;;15.90;99.90;;;;;;7295418;32;20947;-57
2023/10/19 15:50:09;;;;;;;5.62;1.80;;;15.80;99.90;;;;;;7298978;32;20114;-57
2023/10/19 15:54:11;;;;;;;6.25;1.75;;;15.80;99.90;;;;;;7288756;32;20199;-56
2023/10/19 15:58:13;;;;;;;6.12;1.90;;;15.80;99.90;;;;;;7301815;32;20171;-57
2023/10/19 16:02:15;;;;;;;8.27;2.03;;;15.80;99.90;;;;;;7290255;32;20127;-57
2023/10/19 16:06:17;;;;;;;6.12;2.40;;;15.80;99.90;;;;;;7295829;32;20146;-58
2023/10/19 16:10:20;;;;;;;5.50;2.15;;;15.80;99.90;;;;;;7291249;32;20294;-57
2023/10/19 16:14:21;;;;;;;8.60;2.80;;;15.80;99.90;;;;;;7294233;32;20139;-57
2023/10/19 16:18:23;;;;;;;6.85;3.15;;;15.80;99.90;;;;;;7295119;32;20152;-57
2023/10/19 16:22:25;;;;;;;8.48;2.87;;;15.70;99.90;;;;;;7296507;32;20118;-57
2023/10/19 16:26:27;;;;;;;6.35;2.72;;;15.60;99.90;;;;;;7288470;32;20142;-58
2023/10/19 16:30:31;;;;;;;8.70;2.97;;;15.70;99.90;;;;;;7291668;32;20111;-56
2023/10/19 16:34:34;;;;;;;3.90;2.20;;;15.60;99.90;;;;;;7292790;32;20130;-59
2023/10/19 16:38:36;;;;;;;8.43;2.72;;;15.50;99.90;;;;;;7288994;32;20192;-58
2023/10/19 16:42:37;;;;;;;7.55;2.60;;;15.50;99.90;;;;;;7288896;32;20108;-57
2023/10/19 16:46:39;;;;;;;7.28;2.90;;;15.60;99.90;;;;;;7294229;32;20563;-56
2023/10/19 16:50:41;;;;;;;6.82;2.92;;;15.40;99.90;;;;;;7292413;32;20203;-55
2023/10/19 16:54:43;;;;;;;5.90;2.42;;;15.30;99.90;;;;;;7287595;32;20111;-56
2023/10/19 16:58:45;;;;;;;5.30;2.75;;;15.40;99.90;;;;;;7292096;32;20168;-57
2023/10/19 17:02:47;;;;;;;6.68;3.40;;;15.30;99.90;;;;;;7292089;32;20123;-56
2023/10/19 17:06:49;;;;;;;4.03;2.45;;;15.20;99.90;;;;;;7287140;32;20975;-56
2023/10/19 17:10:52;;;;;;;8.07;3.17;;;15.20;99.90;;;;;;7286159;32;20275;-57
2023/10/19 17:14:54;;;;;;;7.07;3.22;;;15.20;99.90;;;;;;7295028;32;20096;-56
2023/10/19 17:18:56;;;;;;;9.27;3.42;;;15.10;99.90;;;;;;7295134;32;20223;-57
2023/10/19 17:22:59;;;;;;;4.62;3.05;;;15.10;99.90;;;;;;7297372;32;20104;-56
2023/10/19 17:27:02;;;;;;;8.35;3.03;;;15.00;99.90;;;;;;7296254;32;20126;-57
2023/10/19 17:31:05;;;;;;;6.18;2.90;;;15.00;99.90;;;;;;7295393;32;20396;-57
2023/10/19 17:35:11;;;;;;;7.10;2.62;;;14.90;99.90;;;;;;7299712;32;20211;-57
2023/10/19 17:39:12;;;;;;;5.03;3.10;;;14.90;99.90;;;;;;7304930;32;20122;-56
2023/10/19 17:43:14;;;;;;;6.68;3.08;;;14.90;99.90;;;;;;7303766;32;20099;-56
2023/10/19 17:47:17;;;;;;;8.23;3.45;;;14.90;99.90;;;;;;7301168;32;20195;-56
2023/10/19 17:51:19;;;;;;;8.15;3.20;;;14.80;99.90;;;;;;7295375;32;20265;-57
2023/10/19 17:55:21;;;;;;;8.48;3.62;;;14.80;99.90;;;;;;7289729;32;20285;-56
2023/10/19 17:59:23;;;;;;;6.57;3.90;;;14.80;99.90;;;;;;7300485;32;20162;-57
2023/10/19 18:03:25;;;;;;;8.20;3.75;;;14.70;99.90;;;;;;7296080;32;20464;-57
2023/10/19 18:07:27;;;;;;;5.18;3.60;;;14.70;99.90;;;;;;7296532;32;20126;-56
2023/10/19 18:11:28;;;;;;;6.28;3.75;;;14.70;99.90;;;;;;7300135;32;20175;-56
2023/10/19 18:15:31;;;;;;;7.53;3.85;;;14.60;99.90;;;;;;7298923;32;20153;-56
2023/10/19 18:19:33;;;;;;;8.70;3.92;;;14.60;99.90;;;;;;7296248;32;20187;-57
2023/10/19 18:23:35;;;;;;;6.72;3.78;;;14.60;99.90;;;;;;7300735;32;20103;-56
2023/10/19 18:27:37;;;;;;;10.93;4.32;;;14.60;99.90;;;;;;7292087;32;20099;-56
2023/10/19 18:31:39;;;;;;;12.18;4.53;;;14.60;99.90;;;;;;7297757;32;20104;-57
2023/10/19 18:35:42;;;;;;;6.37;3.78;;;14.60;99.90;;;;;;7299707;32;20133;-56
2023/10/19 18:39:44;;;;;;;7.85;3.80;;;14.60;99.90;;;;;;7301469;32;20188;-57
2023/10/19 18:43:45;;;;;;;7.55;3.72;;;14.50;99.90;;;;;;7301821;32;20183;-57
2023/10/19 18:47:47;;;;;;;8.05;4.32;;;14.50;99.90;;;;;;7297223;32;20162;-58
2023/10/19 18:51:49;;;;;;;7.75;3.60;;;14.50;99.90;;;;;;7300593;32;20100;-57
2023/10/19 18:55:52;;;;;;;8.88;4.00;;;14.50;99.90;;;;;;7297128;32;20403;-57
2023/10/19 18:59:53;;;;;;;8.07;3.80;;;14.50;99.90;;;;;;7299790;32;20100;-56
2023/10/19 19:03:56;;;;;;;7.82;4.57;;;14.50;99.90;;;;;;7301992;32;20195;-57
2023/10/19 19:07:58;;;;;;;4.95;3.75;;;14.50;99.90;;;;;;7299976;32;20116;-58
2023/10/19 19:12:00;;;;;;;6.30;4.55;;;14.40;99.90;;;;;;7292037;32;20100;-56
2023/10/19 19:16:01;;;;;;;9.40;4.43;;;14.40;99.90;;;;;;7294118;32;20320;-56
2023/10/19 19:20:04;;;;;;;7.35;4.30;;;14.30;99.90;;;;;;7296934;32;20859;-57
2023/10/19 19:24:09;;;;;;;7.47;4.37;;;14.30;99.90;;;;;;7300915;32;20182;-56
2023/10/19 19:28:10;;;;;;;5.60;4.22;;;14.30;99.90;;;;;;7295268;32;20162;-55
2023/10/19 19:32:12;;;;;;;7.03;4.50;;;14.30;99.90;;;;;;7300232;32;20133;-57
2023/10/19 19:36:17;;;;;;;7.97;4.78;;;14.20;99.90;;;;;;7301251;32;20096;-57
2023/10/19 19:40:22;;;;;;;5.78;4.62;;;14.20;99.90;;;;;;7292901;32;20116;-56
2023/10/19 19:44:24;;;;;;;7.40;4.78;;;14.20;99.90;;;;;;7292118;32;20104;-57
2023/10/19 19:48:27;;;;;;;6.25;4.57;;;14.20;99.90;;;;;;7296214;32;20454;-56
2023/10/19 19:52:28;;;;;;;6.03;4.37;;;14.20;99.90;;;;;;7297658;32;20108;-56
2023/10/19 19:56:31;;;;;;;9.23;4.53;;;14.20;99.90;;;;;;7296897;32;20134;-55
2023/10/19 20:00:32;;;;;;;6.37;4.55;;;14.20;99.90;;;;;;7294287;32;20166;-56
2023/10/19 20:04:34;;;;;;;7.35;4.05;;;14.30;99.90;;;;;;7296664;32;20365;-57
2023/10/19 20:08:36;;;;;;;5.22;4.18;;;14.30;99.90;;;;;;7294687;32;20413;-57
2023/10/19 20:12:40;;;;;;;5.37;4.47;;;14.30;99.90;;;;;;7301274;32;20738;-57
2023/10/19 20:16:42;;;;;;;9.18;4.72;;;14.30;99.90;;;;;;7298111;32;20118;-56
2023/10/19 20:20:44;;;;;;;9.45;5.43;;;14.30;99.90;;;;;;7293084;32;20175;-56
2023/10/19 20:24:47;;;;;;;6.78;4.78;;;14.30;99.90;;;;;;7298959;32;20136;-56
2023/10/19 20:28:49;;;;;;;6.97;4.93;;;14.30;99.90;;;;;;7294844;32;20549;-57
2023/10/19 20:32:52;;;;;;;8.63;5.47;;;14.30;99.90;;;;;;7294685;32;20206;-56
2023/10/19 20:36:55;;;;;;;7.22;5.57;;;14.30;99.90;;;;;;7291024;32;20099;-57
2023/10/19 20:40:56;;;;;;;7.75;5.87;;;14.30;99.90;;;;;;7292893;32;20120;-57
2023/10/19 20:44:58;;;;;;;9.88;5.85;;;14.30;99.90;;;;;;7296654;32;20195;-56
2023/10/19 20:49:00;;;;;;;7.53;5.60;;;14.20;99.90;;;;;;7298051;32;20096;-56
2023/10/19 20:53:03;;;;;;;9.70;6.12;;;14.30;99.90;;;;;;7295865;32;20248;-57
2023/10/19 20:57:05;;;;;;;7.93;6.00;;;14.20;99.90;;;;;;7294338;32;20209;-58
2023/10/19 21:01:08;;;;;;;7.05;5.70;;;14.20;99.90;;;;;;7288313;32;20146;-56
2023/10/19 21:05:10;;;;;;;8.75;6.22;;;14.10;99.90;;;;;;7292409;32;20240;-55
2023/10/19 21:09:13;;;;;;;7.00;5.57;;;14.10;99.90;;;;;;7293002;32;20264;-55
2023/10/19 21:13:14;;;;;;;6.28;5.20;;;14.10;99.90;;;;;;7295306;32;20366;-56
2023/10/19 21:17:16;;;;;;;6.55;4.85;;;14.10;99.90;;;;;;7289739;32;20183;-56
2023/10/19 21:21:18;;;;;;;7.82;6.00;;;14.10;99.90;;;;;;7290736;32;20466;-56